createdAt,value
2019-02-28T00:00:37.269Z,52.70
2019-02-28T00:03:45.961Z,53.41
2019-02-28T00:06:52.303Z,53.24
2019-02-28T00:09:59.003Z,53.38
2019-02-28T00:13:05.318Z,52.52
2019-02-28T00:16:11.759Z,52.58
2019-02-28T00:19:18.040Z,52.63
2019-02-28T00:22:24.847Z,52.13
2019-02-28T00:25:31.654Z,51.97
2019-02-28T00:28:38.731Z,51.78
2019-02-28T00:31:49.457Z,51.37
2019-02-28T00:34:53.258Z,51.68
2019-02-28T00:37:59.634Z,51.68
2019-02-28T00:41:09.352Z,52.25
2019-02-28T00:44:15.311Z,52.60
2019-02-28T00:47:21.712Z,52.91
2019-02-28T00:50:28.380Z,52.89
2019-02-28T00:53:37.421Z,52.93
2019-02-28T00:56:43.262Z,52.64
2019-02-28T00:59:49.695Z,53.26
2019-02-28T01:02:57.945Z,53.29
2019-02-28T01:06:04.116Z,53.08
2019-02-28T01:09:10.402Z,53.16
2019-02-28T01:12:19.166Z,52.25
2019-02-28T01:15:24.825Z,52.07
2019-02-28T01:18:34.458Z,52.03
2019-02-28T01:21:40.172Z,50.90
2019-02-28T01:24:47.689Z,52.23
2019-02-28T01:27:54.194Z,51.25
2019-02-28T01:31:00.808Z,50.71
2019-02-28T01:34:07.965Z,50.96
2019-02-28T01:37:14.406Z,52.15
2019-02-28T01:40:20.775Z,50.48
2019-02-28T01:43:28.770Z,50.83
2019-02-28T01:46:36.258Z,50.92
2019-02-28T01:49:42.821Z,50.98
2019-02-28T01:52:49.185Z,50.79
2019-02-28T01:55:55.696Z,51.29
2019-02-28T01:59:02.120Z,50.83
2019-02-28T02:02:09.474Z,50.72
2019-02-28T02:05:17.031Z,51.57
2019-02-28T02:08:23.844Z,51.36
2019-02-28T02:11:30.174Z,50.82
2019-02-28T02:14:36.517Z,51.00
2019-02-28T02:17:42.865Z,50.97
2019-02-28T02:20:49.623Z,50.88
2019-02-28T02:23:55.877Z,50.79
2019-02-28T02:27:02.218Z,51.37
2019-02-28T02:30:15.059Z,50.60
2019-02-28T02:33:20.573Z,51.28
2019-02-28T02:36:26.857Z,51.28
2019-02-28T02:39:33.410Z,50.79
2019-02-28T02:42:47.616Z,50.55
2019-02-28T02:45:47.893Z,50.42
2019-02-28T02:48:54.278Z,50.33
2019-02-28T02:52:00.620Z,51.07
2019-02-28T02:55:07.067Z,50.55
2019-02-28T02:58:13.515Z,50.93
2019-02-28T03:01:23.191Z,51.16
2019-02-28T03:04:28.390Z,50.90
2019-02-28T03:07:34.745Z,51.19
2019-02-28T03:10:41.224Z,50.72
2019-02-28T03:13:47.609Z,50.99
2019-02-28T03:16:53.883Z,51.33
2019-02-28T03:20:00.711Z,51.21
2019-02-28T03:23:07.569Z,51.41
2019-02-28T03:26:13.901Z,51.84
2019-02-28T03:29:20.368Z,51.15
2019-02-28T03:32:39.796Z,51.37
2019-02-28T03:35:43.279Z,51.73
2019-02-28T03:38:48.576Z,52.04
2019-02-28T03:41:52.848Z,52.05
2019-02-28T03:44:59.807Z,51.65
2019-02-28T03:48:06.332Z,52.37
2019-02-28T03:51:12.718Z,52.22
2019-02-28T03:54:19.290Z,52.66
2019-02-28T03:57:29.415Z,52.41
2019-02-28T04:00:34.343Z,52.56
2019-02-28T04:03:40.722Z,53.49
2019-02-28T04:06:47.909Z,52.76
2019-02-28T04:09:54.599Z,53.11
2019-02-28T04:13:01.094Z,53.22
2019-02-28T04:16:09.490Z,53.23
2019-02-28T04:19:21.370Z,53.52
2019-02-28T04:22:24.017Z,53.43
2019-02-28T04:25:30.640Z,53.80
2019-02-28T04:28:37.289Z,53.93
2019-02-28T04:31:44.576Z,53.73
2019-02-28T04:34:51.132Z,53.91
2019-02-28T04:37:57.623Z,54.18
2019-02-28T04:41:03.955Z,53.98
2019-02-28T04:44:10.274Z,54.17
2019-02-28T04:47:16.892Z,54.35
2019-02-28T04:50:31.330Z,54.32
2019-02-28T04:53:34.153Z,55.35
2019-02-28T04:56:42.355Z,54.31
2019-02-28T04:59:48.687Z,54.65
2019-02-28T05:02:56.284Z,54.64
2019-02-28T05:06:02.629Z,54.66
2019-02-28T05:09:10.774Z,54.62
2019-02-28T05:12:17.184Z,54.58
2019-02-28T05:15:23.596Z,54.82
2019-02-28T05:18:29.874Z,54.85
2019-02-28T05:21:36.316Z,55.38
2019-02-28T05:24:43.676Z,54.73
2019-02-28T05:27:50.186Z,54.73
2019-02-28T05:30:56.533Z,54.88
2019-02-28T05:34:02.903Z,54.79
2019-02-28T05:37:12.503Z,55.29
2019-02-28T05:40:18.834Z,55.33
2019-02-28T05:43:25.190Z,55.06
2019-02-28T05:46:31.582Z,55.23
2019-02-28T05:49:40.687Z,55.43
2019-02-28T05:52:45.963Z,55.47
2019-02-28T05:55:52.220Z,55.35
2019-02-28T05:58:58.614Z,55.30
2019-02-28T06:02:04.859Z,55.59
2019-02-28T06:05:11.855Z,55.44
2019-02-28T06:08:19.166Z,55.80
2019-02-28T06:11:25.872Z,55.94
2019-02-28T06:14:32.124Z,55.83
2019-02-28T06:17:38.567Z,55.72
2019-02-28T06:20:44.807Z,55.91
2019-02-28T06:23:51.263Z,55.57
2019-02-28T06:26:57.857Z,56.21
2019-02-28T06:30:04.408Z,55.95
2019-02-28T06:33:10.752Z,56.23
2019-02-28T06:36:17.208Z,55.96
2019-02-28T06:39:26.855Z,56.29
2019-02-28T06:42:32.087Z,56.17
2019-02-28T06:45:38.423Z,55.90
2019-02-28T06:48:44.756Z,56.17
2019-02-28T06:51:51.321Z,55.89
2019-02-28T06:54:58.414Z,55.88
2019-02-28T06:58:04.732Z,56.06
2019-02-28T07:01:11.102Z,55.99
2019-02-28T07:04:17.412Z,55.86
2019-02-28T07:07:24.909Z,56.03
2019-02-28T07:10:31.304Z,55.69
2019-02-28T07:13:39.983Z,55.74
2019-02-28T07:16:45.806Z,55.40
2019-02-28T07:19:53.360Z,55.36
2019-02-28T07:22:59.691Z,55.53
2019-02-28T07:26:06.005Z,55.40
2019-02-28T07:29:12.393Z,55.86
2019-02-28T07:32:18.965Z,54.75
2019-02-28T07:35:25.327Z,54.53
2019-02-28T07:38:31.605Z,54.29
2019-02-28T07:41:38.277Z,53.95
2019-02-28T07:44:44.883Z,52.86
2019-02-28T07:47:52.668Z,53.32
2019-02-28T07:50:59.473Z,52.55
2019-02-28T07:54:05.785Z,52.60
2019-02-28T07:57:16.947Z,52.59
2019-02-28T08:00:20.501Z,52.65
2019-02-28T08:03:26.986Z,51.77
2019-02-28T08:06:36.258Z,52.00
2019-02-28T08:09:41.647Z,51.63
2019-02-28T08:12:47.887Z,51.31
2019-02-28T08:15:56.509Z,50.70
2019-02-28T08:19:02.282Z,50.11
2019-02-28T08:22:09.285Z,50.50
2019-02-28T08:25:15.618Z,50.09
2019-02-28T08:28:24.076Z,49.08
2019-02-28T08:31:31.988Z,48.16
2019-02-28T08:34:39.314Z,47.36
2019-02-28T08:37:45.597Z,46.51
2019-02-28T08:40:51.988Z,47.15
2019-02-28T08:43:58.613Z,45.86
2019-02-28T08:47:05.140Z,44.92
2019-02-28T08:50:19.065Z,44.42
2019-02-28T08:53:22.640Z,44.82
2019-02-28T08:56:32.277Z,44.58
2019-02-28T08:59:39.868Z,44.26
2019-02-28T09:02:46.193Z,43.12
2019-02-28T09:05:52.924Z,43.15
2019-02-28T09:08:59.911Z,42.91
2019-02-28T09:12:09.353Z,42.52
2019-02-28T09:15:15.806Z,42.62
2019-02-28T09:18:22.088Z,42.28
2019-02-28T09:21:28.693Z,42.39
2019-02-28T09:24:35.140Z,43.14
2019-02-28T09:27:42.197Z,43.83
2019-02-28T09:30:48.988Z,42.91
2019-02-28T09:33:58.739Z,43.14
2019-02-28T09:37:03.590Z,42.71
2019-02-28T09:40:11.763Z,44.07
2019-02-28T09:43:18.359Z,43.51
2019-02-28T09:46:25.103Z,43.96
2019-02-28T09:49:31.701Z,43.64
2019-02-28T09:52:41.532Z,44.68
2019-02-28T09:55:46.245Z,44.34
2019-02-28T09:58:52.610Z,44.14
2019-02-28T10:02:01.787Z,43.81
2019-02-28T10:05:08.938Z,44.33
2019-02-28T10:08:15.350Z,44.31
2019-02-28T10:11:21.930Z,44.69
2019-02-28T10:14:28.977Z,44.96
2019-02-28T10:17:37.166Z,44.83
2019-02-28T10:20:43.560Z,44.84
2019-02-28T10:23:49.951Z,45.51
2019-02-28T10:26:56.380Z,45.42
2019-02-28T10:30:02.722Z,45.54
2019-02-28T10:33:09.226Z,44.98
2019-02-28T10:36:15.655Z,46.09
2019-02-28T10:39:22.353Z,45.44
2019-02-28T10:42:28.714Z,45.63
2019-02-28T10:45:35.203Z,45.73
2019-02-28T10:48:50.438Z,45.64
2019-02-28T10:51:50.444Z,44.70
2019-02-28T10:54:56.833Z,45.13
2019-02-28T10:58:03.647Z,45.38
2019-02-28T11:01:11.431Z,45.04
2019-02-28T11:04:18.270Z,44.33
2019-02-28T11:07:24.864Z,44.52
2019-02-28T11:10:35.545Z,44.50
2019-02-28T11:13:42.282Z,43.24
2019-02-28T11:16:48.720Z,44.26
2019-02-28T11:19:55.253Z,44.41
2019-02-28T11:23:01.606Z,45.82
2019-02-28T11:26:09.611Z,47.64
2019-02-28T11:29:15.978Z,47.54
2019-02-28T11:32:22.645Z,47.04
2019-02-28T11:35:29.389Z,47.65
2019-02-28T11:38:35.659Z,47.73
2019-02-28T11:41:42.101Z,47.65
2019-02-28T11:44:48.494Z,47.96
2019-02-28T11:47:56.249Z,48.29
2019-02-28T11:51:02.765Z,48.90
2019-02-28T11:54:12.287Z,48.04
2019-02-28T11:57:17.623Z,48.28
2019-02-28T12:00:29.335Z,48.31
2019-02-28T12:08:22.408Z,48.04
2019-02-28T12:11:29.920Z,48.31
2019-02-28T12:14:36.379Z,48.48
2019-02-28T12:17:42.722Z,48.17
2019-02-28T12:20:49.353Z,47.78
2019-02-28T12:23:57.295Z,47.99
2019-02-28T12:27:04.205Z,47.91
2019-02-28T12:30:16.003Z,46.82
2019-02-28T12:33:23.314Z,46.31
2019-02-28T12:36:29.976Z,47.43
2019-02-28T12:39:37.081Z,47.91
2019-02-28T12:42:43.552Z,49.57
2019-02-28T12:45:50.153Z,50.53
2019-02-28T12:48:56.467Z,50.38
2019-02-28T12:52:04.049Z,50.48
2019-02-28T12:55:12.504Z,49.45
2019-02-28T12:58:19.192Z,49.76
2019-02-28T13:01:25.539Z,49.07
2019-02-28T13:04:32.540Z,48.29
2019-02-28T13:07:40.192Z,47.33
2019-02-28T13:10:46.686Z,46.84
2019-02-28T13:13:53.330Z,46.58
2019-02-28T13:16:59.719Z,46.43
2019-02-28T13:20:09.423Z,46.73
2019-02-28T13:23:17.140Z,47.25
2019-02-28T13:26:23.730Z,47.04
2019-02-28T13:29:32.431Z,47.85
2019-02-28T13:32:39.159Z,47.62
2019-02-28T13:35:47.377Z,48.12
2019-02-28T13:38:55.770Z,48.13
2019-02-28T13:42:03.178Z,48.28
2019-02-28T13:45:16.196Z,47.63
2019-02-28T13:48:26.206Z,48.00
2019-02-28T13:51:27.860Z,48.09
2019-02-28T13:54:34.346Z,48.36
2019-02-28T13:57:43.403Z,47.70
2019-02-28T14:00:49.032Z,48.79
2019-02-28T14:03:55.388Z,49.29
2019-02-28T14:07:02.111Z,49.50
2019-02-28T14:10:11.410Z,50.05
2019-02-28T14:13:18.016Z,50.04
2019-02-28T14:16:27.000Z,50.43
2019-02-28T14:19:33.474Z,51.44
2019-02-28T14:22:42.766Z,51.33
2019-02-28T14:25:47.856Z,52.65
2019-02-28T14:28:55.277Z,52.15
2019-02-28T14:32:04.622Z,52.41
2019-02-28T14:35:09.965Z,52.74
2019-02-28T14:38:16.454Z,53.46
2019-02-28T14:41:24.626Z,52.86
2019-02-28T14:44:31.549Z,53.17
2019-02-28T14:47:38.943Z,53.18
2019-02-28T14:50:46.172Z,54.21
2019-02-28T14:53:52.436Z,53.87
2019-02-28T14:56:59.408Z,54.00
2019-02-28T15:00:08.219Z,53.82
2019-02-28T15:03:15.054Z,54.99
2019-02-28T15:06:21.496Z,54.35
2019-02-28T15:09:28.152Z,54.41
2019-02-28T15:12:34.538Z,54.59
2019-02-28T15:15:41.061Z,54.55
2019-02-28T15:18:51.054Z,54.42
2019-02-28T15:21:55.912Z,54.84
2019-02-28T15:25:04.290Z,55.20
2019-02-28T15:28:10.736Z,55.52
2019-02-28T15:31:18.585Z,55.52
2019-02-28T15:34:25.062Z,55.54
2019-02-28T15:37:33.682Z,55.00
2019-02-28T15:40:41.615Z,55.29
2019-02-28T15:43:50.314Z,55.30
2019-02-28T15:46:55.970Z,55.76
2019-02-28T15:50:02.296Z,55.58
2019-02-28T15:53:11.247Z,56.12
2019-02-28T15:56:20.062Z,55.00
2019-02-28T15:59:26.765Z,55.00
2019-02-28T16:02:33.150Z,55.13
2019-02-28T16:05:44.036Z,55.14
2019-02-28T16:08:47.974Z,55.86
2019-02-28T16:11:54.567Z,56.31
2019-02-28T16:15:00.999Z,56.54
2019-02-28T16:18:08.656Z,56.87
2019-02-28T16:21:15.523Z,56.71
2019-02-28T16:24:21.875Z,56.86
2019-02-28T16:27:29.574Z,56.92
2019-02-28T16:30:36.565Z,57.54
2019-02-28T16:33:42.973Z,57.32
2019-02-28T16:36:49.393Z,57.96
2019-02-28T16:39:55.739Z,58.00
2019-02-28T16:43:02.566Z,58.32
2019-02-28T16:46:08.966Z,57.98
2019-02-28T16:49:15.529Z,58.42
2019-02-28T16:52:21.915Z,58.85
2019-02-28T16:55:30.782Z,58.75
2019-02-28T16:58:36.340Z,58.51
2019-02-28T17:01:42.765Z,57.99
2019-02-28T17:04:51.789Z,58.16
2019-02-28T17:07:57.717Z,58.73
2019-02-28T17:11:04.149Z,58.78
2019-02-28T17:14:16.865Z,58.38
2019-02-28T17:17:36.652Z,58.86
2019-02-28T17:20:43.085Z,58.39
2019-02-28T17:23:49.437Z,59.40
2019-02-28T17:27:07.425Z,59.02
2019-02-28T17:30:24.523Z,59.13
2019-02-28T17:33:30.937Z,58.69
2019-02-28T17:36:37.341Z,58.35
2019-02-28T17:39:43.706Z,58.40
2019-02-28T17:42:50.745Z,58.02
2019-02-28T17:45:57.270Z,58.01
2019-02-28T17:49:39.486Z,58.52
2019-02-28T17:53:26.479Z,58.71
2019-02-28T17:57:25.990Z,59.09
2019-02-28T18:01:12.099Z,59.03
2019-02-28T18:04:42.847Z,58.92
2019-02-28T18:08:20.662Z,58.67
2019-02-28T18:12:13.885Z,59.14
2019-02-28T18:15:28.359Z,58.69
2019-02-28T18:18:49.036Z,59.15
2019-02-28T18:22:36.765Z,59.28
2019-02-28T18:26:01.118Z,59.06
2019-02-28T18:29:36.570Z,58.54
2019-02-28T18:32:43.210Z,58.32
2019-02-28T18:35:50.144Z,58.60
2019-02-28T18:38:56.559Z,58.89
2019-02-28T18:42:02.976Z,59.32
2019-02-28T18:45:10.804Z,58.86
2019-02-28T18:48:18.734Z,59.31
2019-02-28T18:51:25.160Z,58.73
2019-02-28T18:54:31.706Z,59.38
2019-02-28T18:57:38.183Z,59.06
2019-02-28T19:00:44.579Z,59.50
2019-02-28T19:03:50.864Z,59.54
2019-02-28T19:06:57.864Z,59.22
2019-02-28T19:10:04.413Z,58.98
2019-02-28T19:13:11.033Z,59.96
2019-02-28T19:16:17.424Z,59.85
2019-02-28T19:19:23.968Z,60.01
2019-02-28T19:22:30.365Z,60.06
2019-02-28T19:25:36.989Z,59.92
2019-02-28T19:28:43.698Z,60.16
2019-02-28T19:31:50.162Z,59.75
2019-02-28T19:34:56.601Z,59.74
2019-02-28T19:38:02.952Z,59.63
2019-02-28T19:41:10.947Z,59.05
2019-02-28T19:44:17.427Z,59.70
2019-02-28T19:47:23.767Z,59.28
2019-02-28T19:50:30.188Z,59.68
2019-02-28T19:53:36.515Z,59.88
2019-02-28T19:56:43.400Z,60.05
2019-02-28T19:59:49.849Z,60.54
2019-02-28T20:02:56.672Z,60.21
2019-02-28T20:06:03.044Z,60.17
2019-02-28T20:09:10.393Z,60.12
2019-02-28T20:12:17.984Z,60.27
2019-02-28T20:15:27.904Z,59.84
2019-02-28T20:18:35.583Z,59.74
2019-02-28T20:21:42.030Z,60.18
2019-02-28T20:24:48.450Z,60.11
2019-02-28T20:27:55.079Z,60.24
2019-02-28T20:31:01.406Z,60.54
2019-02-28T20:34:07.752Z,60.92
2019-02-28T20:37:14.278Z,60.18
2019-02-28T20:40:20.869Z,60.73
2019-02-28T20:43:27.236Z,60.54
2019-02-28T20:46:33.692Z,59.99
2019-02-28T20:49:40.203Z,60.07
2019-02-28T20:52:46.655Z,59.59
2019-02-28T20:55:53.083Z,59.39
2019-02-28T20:58:59.800Z,59.63
2019-02-28T21:02:06.253Z,60.36
2019-02-28T21:05:12.659Z,59.87
2019-02-28T21:08:19.007Z,59.68
2019-02-28T21:11:25.769Z,60.13
2019-02-28T21:14:32.312Z,59.97
2019-02-28T21:17:38.716Z,59.92
2019-02-28T21:20:45.221Z,59.91
2019-02-28T21:23:51.749Z,60.06
2019-02-28T21:26:58.078Z,60.58
2019-02-28T21:30:05.238Z,60.58
2019-02-28T21:33:11.639Z,60.15
2019-02-28T21:36:18.772Z,60.42
2019-02-28T21:39:25.234Z,60.47
2019-02-28T21:42:31.695Z,60.47
2019-02-28T21:45:38.087Z,61.01
2019-02-28T21:48:44.528Z,61.34
2019-02-28T21:51:50.944Z,61.58
2019-02-28T21:54:59.033Z,61.02
2019-02-28T21:58:05.366Z,60.80
2019-02-28T22:01:11.695Z,61.24
2019-02-28T22:04:18.029Z,60.52
2019-02-28T22:07:24.599Z,61.46
2019-02-28T22:10:30.852Z,61.35
2019-02-28T22:13:38.188Z,61.29
2019-02-28T22:16:44.675Z,60.85
2019-02-28T22:19:51.156Z,60.66
2019-02-28T22:22:57.476Z,60.83
2019-02-28T22:26:03.941Z,60.82
2019-02-28T22:29:10.312Z,61.00
2019-02-28T22:32:24.677Z,61.15
2019-02-28T22:35:34.467Z,60.81
2019-02-28T22:38:40.942Z,60.51
2019-02-28T22:41:47.380Z,61.05
2019-02-28T22:44:53.785Z,60.82
2019-02-28T22:48:00.053Z,60.60
2019-02-28T22:51:06.880Z,61.18
2019-02-28T22:54:13.319Z,60.93
2019-02-28T22:57:20.761Z,61.41
2019-02-28T23:00:38.326Z,61.36
2019-02-28T23:03:46.432Z,60.87
2019-02-28T23:06:52.770Z,60.54
2019-02-28T23:09:59.398Z,60.57
2019-02-28T23:13:05.773Z,60.47
2019-02-28T23:16:13.803Z,60.58
2019-02-28T23:19:20.304Z,60.18
2019-02-28T23:22:26.808Z,60.87
2019-02-28T23:25:33.171Z,60.86
2019-02-28T23:28:45.739Z,60.62
2019-02-28T23:32:25.630Z,60.53
2019-02-28T23:35:34.934Z,60.93
2019-02-28T23:38:41.285Z,61.03
2019-02-28T23:41:47.774Z,61.10
2019-02-28T23:44:54.232Z,61.14
2019-02-28T23:48:00.908Z,60.61
2019-02-28T23:51:07.389Z,60.78
2019-02-28T23:54:13.751Z,61.04
2019-02-28T23:57:20.202Z,61.01
